Kuggoren, Sweden

3:49 PM CEST on May 25, 2015 (GMT +0200)
Lonnanger, Nordanstig | | Change Station
CLOSE
Current Station
Personal Weather Station
Location: Lonnanger, GäVLEBORG COUNTY
Elevation: 34 ft
Nearby Weather Stations

Elev 34 ft 61.93 °N, 17.31 °E | Updated 18 minutes ago

Overcast
Overcast
55.9 °F
Feels Like 55.9 °F
N
11.0
Wind Variable Wind from SE
Gusts 13.0 mph

Today
High -- | Low -- °F
--% Chance of Precip.
Yesterday
High -- | Low -- °F
Precip. -- in
3:35 AM 9:59 PM
Waxing Crescent, 49% visible
Pressure 29.74 in
Visibility 6.2 miles
Clouds Mostly Cloudy 1900 ft
Overcast 3000 ft
Dew Point 49 °F
Humidity 78%
Rainfall 0.00 in
Snow Depth Not available.
UV 2 out of 12
Pollen Not available.
Air Quality Not available.
Flu Activity Not available.
METAR ESNN 251320Z 14010KT 9999 BKN019 OVC030 12/07 Q1007

More Conditions Fewer Conditions

Pressure 29.74 in
Visibility 6.2 miles
Clouds Mostly Cloudy 1900 ft
Overcast 3000 ft
Dew Point 49 °F
Humidity 78%
Rainfall 0.00 in
Snow Depth Not available.
UV 2 out of 12
Pollen Not available.
Air Quality Not available.
Flu Activity Not available.
METAR ESNN 251320Z 14010KT 9999 BKN019 OVC030 12/07 Q1007

More Conditions Fewer Conditions

10-Day Weather Forecast

Almanac

Astronomy

May. 25, 2015 Rise Set
Actual Time
Civil Twilight
Nautical Twilight
Astronomical Twilight
Moon
Length of Visible Light
Length of Day
Tomorrow will be .
, % of the Moon is Illuminated

Today's Extremes

Country Highs Country Lows

Community

WunderPhotos

Upload Photos

1,824,009 photos uploaded!

WunderBlogs® & News

Nearby

Air Quality

  Air Quality AQ Index Pollutant
Not available.

Snow Depth

Station Depth Elevation

Earthquake Activity

City Distance Mag. Time & Date
Minimum magnitude displayed is 2.5.

Coastal Water Temperatures

Place Temperature

Stations

Nearby Weather Stations

Station Location Temp. Windchill Dew Point Humidity Wind Precip. Elev Updated Type